sensor_id;sensor_type;location;lat;lon;timestamp;temperature;humidity
70076;DHT22;63241;51.056;3.698;2023-04-21T00:00:10;6.90;99.90
70076;DHT22;63241;51.056;3.698;2023-04-21T00:02:37;6.90;99.90
70076;DHT22;63241;51.056;3.698;2023-04-21T00:05:07;6.90;99.90
70076;DHT22;63241;51.056;3.698;2023-04-21T00:07:36;6.90;99.90
70076;DHT22;63241;51.056;3.698;2023-04-21T00:10:09;6.90;99.90
70076;DHT22;63241;51.056;3.698;2023-04-21T00:12:37;6.90;99.90
70076;DHT22;63241;51.056;3.698;2023-04-21T00:15:06;6.80;99.90
70076;DHT22;63241;51.056;3.698;2023-04-21T00:17:33;6.80;99.90
70076;DHT22;63241;51.056;3.698;2023-04-21T00:20:01;6.90;99.90
70076;DHT22;63241;51.056;3.698;2023-04-21T00:22:30;6.90;99.90
70076;DHT22;63241;51.056;3.698;2023-04-21T00:24:58;6.90;99.90
70076;DHT22;63241;51.056;3.698;2023-04-21T00:27:26;6.90;99.90
70076;DHT22;63241;51.056;3.698;2023-04-21T00:29:54;6.90;99.90
70076;DHT22;63241;51.056;3.698;2023-04-21T00:32:24;6.80;99.90
70076;DHT22;63241;51.056;3.698;2023-04-21T00:34:51;6.80;99.90
70076;DHT22;63241;51.056;3.698;2023-04-21T00:37:20;6.80;99.90
70076;DHT22;63241;51.056;3.698;2023-04-21T00:39:47;6.80;99.90
70076;DHT22;63241;51.056;3.698;2023-04-21T00:42:15;6.90;99.90
70076;DHT22;63241;51.056;3.698;2023-04-21T00:44:43;6.90;99.90
70076;DHT22;63241;51.056;3.698;2023-04-21T00:47:11;6.90;99.90
70076;DHT22;63241;51.056;3.698;2023-04-21T00:49:38;7.00;99.90
70076;DHT22;63241;51.056;3.698;2023-04-21T00:52:06;7.00;99.90
70076;DHT22;63241;51.056;3.698;2023-04-21T00:54:35;7.00;99.90
70076;DHT22;63241;51.056;3.698;2023-04-21T00:57:04;7.10;99.90
70076;DHT22;63241;51.056;3.698;2023-04-21T00:59:33;7.10;99.90
70076;DHT22;63241;51.056;3.698;2023-04-21T01:02:02;7.20;99.90
70076;DHT22;63241;51.056;3.698;2023-04-21T01:04:29;7.20;99.90
70076;DHT22;63241;51.056;3.698;2023-04-21T01:07:03;7.30;99.90
70076;DHT22;63241;51.056;3.698;2023-04-21T01:09:32;7.30;99.90
70076;DHT22;63241;51.056;3.698;2023-04-21T01:12:02;7.30;99.90
70076;DHT22;63241;51.056;3.698;2023-04-21T01:14:30;7.40;99.90
70076;DHT22;63241;51.056;3.698;2023-04-21T01:16:57;7.50;99.90
70076;DHT22;63241;51.056;3.698;2023-04-21T01:19:27;7.60;99.90
70076;DHT22;63241;51.056;3.698;2023-04-21T01:21:56;7.60;99.90
70076;DHT22;63241;51.056;3.698;2023-04-21T01:24:39;7.70;99.90
70076;DHT22;63241;51.056;3.698;2023-04-21T01:27:15;7.70;99.90
70076;DHT22;63241;51.056;3.698;2023-04-21T01:29:46;7.80;99.90
70076;DHT22;63241;51.056;3.698;2023-04-21T01:32:18;7.80;99.90
70076;DHT22;63241;51.056;3.698;2023-04-21T01:34:45;7.90;99.90
70076;DHT22;63241;51.056;3.698;2023-04-21T01:37:16;7.90;99.90
70076;DHT22;63241;51.056;3.698;2023-04-21T01:39:51;7.90;99.90
70076;DHT22;63241;51.056;3.698;2023-04-21T01:42:16;7.90;99.90
70076;DHT22;63241;51.056;3.698;2023-04-21T01:44:44;8.00;99.90
70076;DHT22;63241;51.056;3.698;2023-04-21T01:47:13;8.00;99.90
70076;DHT22;63241;51.056;3.698;2023-04-21T01:49:40;8.00;99.90
70076;DHT22;63241;51.056;3.698;2023-04-21T01:52:08;8.10;99.90
70076;DHT22;63241;51.056;3.698;2023-04-21T01:54:36;8.10;99.90
70076;DHT22;63241;51.056;3.698;2023-04-21T01:57:05;8.10;99.90
70076;DHT22;63241;51.056;3.698;2023-04-21T01:59:32;8.20;99.90
70076;DHT22;63241;51.056;3.698;2023-04-21T02:02:00;8.20;99.90
70076;DHT22;63241;51.056;3.698;2023-04-21T02:04:28;8.20;99.90
70076;DHT22;63241;51.056;3.698;2023-04-21T02:06:56;8.20;99.90
70076;DHT22;63241;51.056;3.698;2023-04-21T02:09:24;8.20;99.90
70076;DHT22;63241;51.056;3.698;2023-04-21T02:11:51;8.20;99.90
70076;DHT22;63241;51.056;3.698;2023-04-21T02:14:19;8.30;99.90
70076;DHT22;63241;51.056;3.698;2023-04-21T02:16:47;8.30;99.90
70076;DHT22;63241;51.056;3.698;2023-04-21T02:19:14;8.20;99.90
70076;DHT22;63241;51.056;3.698;2023-04-21T02:21:42;8.20;99.90
70076;DHT22;63241;51.056;3.698;2023-04-21T02:24:09;8.20;99.90
70076;DHT22;63241;51.056;3.698;2023-04-21T02:26:37;8.10;99.90
70076;DHT22;63241;51.056;3.698;2023-04-21T02:29:05;8.10;99.90
70076;DHT22;63241;51.056;3.698;2023-04-21T02:31:32;8.10;99.90
70076;DHT22;63241;51.056;3.698;2023-04-21T02:34:00;8.10;99.90
70076;DHT22;63241;51.056;3.698;2023-04-21T02:36:28;8.10;99.90
70076;DHT22;63241;51.056;3.698;2023-04-21T02:38:56;8.10;99.90
70076;DHT22;63241;51.056;3.698;2023-04-21T02:41:24;8.10;99.90
70076;DHT22;63241;51.056;3.698;2023-04-21T02:43:51;8.10;99.90
70076;DHT22;63241;51.056;3.698;2023-04-21T02:46:19;8.10;99.90
70076;DHT22;63241;51.056;3.698;2023-04-21T02:48:47;8.20;99.90
70076;DHT22;63241;51.056;3.698;2023-04-21T02:51:14;8.20;99.90
70076;DHT22;63241;51.056;3.698;2023-04-21T02:53:42;8.20;99.90
70076;DHT22;63241;51.056;3.698;2023-04-21T02:56:10;8.20;99.90
70076;DHT22;63241;51.056;3.698;2023-04-21T02:58:38;8.20;99.90
70076;DHT22;63241;51.056;3.698;2023-04-21T03:01:06;8.20;99.90
70076;DHT22;63241;51.056;3.698;2023-04-21T03:03:33;8.30;99.90
70076;DHT22;63241;51.056;3.698;2023-04-21T03:06:03;8.20;99.90
70076;DHT22;63241;51.056;3.698;2023-04-21T03:08:31;8.30;99.90
70076;DHT22;63241;51.056;3.698;2023-04-21T03:10:59;8.30;99.90
70076;DHT22;63241;51.056;3.698;2023-04-21T03:13:26;8.30;99.90
70076;DHT22;63241;51.056;3.698;2023-04-21T03:15:54;8.30;99.90
70076;DHT22;63241;51.056;3.698;2023-04-21T03:18:22;8.30;99.90
70076;DHT22;63241;51.056;3.698;2023-04-21T03:20:50;8.30;99.90
70076;DHT22;63241;51.056;3.698;2023-04-21T03:23:18;8.30;99.90
70076;DHT22;63241;51.056;3.698;2023-04-21T03:25:46;8.30;99.90
70076;DHT22;63241;51.056;3.698;2023-04-21T03:28:13;8.30;99.90
70076;DHT22;63241;51.056;3.698;2023-04-21T03:30:42;8.30;99.90
70076;DHT22;63241;51.056;3.698;2023-04-21T03:33:10;8.30;99.90
70076;DHT22;63241;51.056;3.698;2023-04-21T03:35:37;8.30;99.90
70076;DHT22;63241;51.056;3.698;2023-04-21T03:38:05;8.30;99.90
70076;DHT22;63241;51.056;3.698;2023-04-21T03:40:33;8.40;99.90
70076;DHT22;63241;51.056;3.698;2023-04-21T03:43:00;8.40;99.90
70076;DHT22;63241;51.056;3.698;2023-04-21T03:45:28;8.40;99.90
70076;DHT22;63241;51.056;3.698;2023-04-21T03:47:56;8.40;99.90
70076;DHT22;63241;51.056;3.698;2023-04-21T03:50:23;8.50;99.90
70076;DHT22;63241;51.056;3.698;2023-04-21T03:52:51;8.50;99.90
70076;DHT22;63241;51.056;3.698;2023-04-21T03:55:19;8.40;99.90
70076;DHT22;63241;51.056;3.698;2023-04-21T03:57:46;8.40;99.90
70076;DHT22;63241;51.056;3.698;2023-04-21T04:00:14;8.30;99.90
70076;DHT22;63241;51.056;3.698;2023-04-21T04:02:42;8.30;99.90
70076;DHT22;63241;51.056;3.698;2023-04-21T04:05:09;8.30;99.90
70076;DHT22;63241;51.056;3.698;2023-04-21T04:07:37;8.40;99.90
70076;DHT22;63241;51.056;3.698;2023-04-21T04:10:05;8.40;99.90
70076;DHT22;63241;51.056;3.698;2023-04-21T04:12:33;8.40;99.90
70076;DHT22;63241;51.056;3.698;2023-04-21T04:15:01;8.30;99.90
70076;DHT22;63241;51.056;3.698;2023-04-21T04:17:28;8.30;99.90
70076;DHT22;63241;51.056;3.698;2023-04-21T04:19:56;8.30;99.90
70076;DHT22;63241;51.056;3.698;2023-04-21T04:22:24;8.30;99.90
70076;DHT22;63241;51.056;3.698;2023-04-21T04:24:51;8.20;99.90
70076;DHT22;63241;51.056;3.698;2023-04-21T04:27:19;8.20;99.90
70076;DHT22;63241;51.056;3.698;2023-04-21T04:29:47;8.10;99.90
70076;DHT22;63241;51.056;3.698;2023-04-21T04:32:14;8.10;99.90
70076;DHT22;63241;51.056;3.698;2023-04-21T04:34:43;8.10;99.90
70076;DHT22;63241;51.056;3.698;2023-04-21T04:37:10;8.10;99.90
70076;DHT22;63241;51.056;3.698;2023-04-21T04:39:38;8.10;99.90
70076;DHT22;63241;51.056;3.698;2023-04-21T04:42:07;8.10;99.90
70076;DHT22;63241;51.056;3.698;2023-04-21T04:44:38;8.10;99.90
70076;DHT22;63241;51.056;3.698;2023-04-21T04:47:07;8.10;99.90
70076;DHT22;63241;51.056;3.698;2023-04-21T04:49:34;8.10;99.90
70076;DHT22;63241;51.056;3.698;2023-04-21T04:52:02;8.10;99.90
70076;DHT22;63241;51.056;3.698;2023-04-21T04:54:30;8.00;99.90
70076;DHT22;63241;51.056;3.698;2023-04-21T04:56:59;8.00;99.90
70076;DHT22;63241;51.056;3.698;2023-04-21T04:59:26;8.10;99.90
70076;DHT22;63241;51.056;3.698;2023-04-21T05:01:56;8.10;99.90
70076;DHT22;63241;51.056;3.698;2023-04-21T05:04:23;8.20;99.90
70076;DHT22;63241;51.056;3.698;2023-04-21T05:06:51;8.20;99.90
70076;DHT22;63241;51.056;3.698;2023-04-21T05:09:19;8.20;99.90
70076;DHT22;63241;51.056;3.698;2023-04-21T05:11:46;8.30;99.90
70076;DHT22;63241;51.056;3.698;2023-04-21T05:14:14;8.20;99.90
70076;DHT22;63241;51.056;3.698;2023-04-21T05:16:45;8.20;99.90
70076;DHT22;63241;51.056;3.698;2023-04-21T05:19:13;8.20;99.90
70076;DHT22;63241;51.056;3.698;2023-04-21T05:21:40;8.30;99.90
70076;DHT22;63241;51.056;3.698;2023-04-21T05:24:08;8.30;99.90
70076;DHT22;63241;51.056;3.698;2023-04-21T05:26:36;8.30;99.90
70076;DHT22;63241;51.056;3.698;2023-04-21T05:29:03;8.30;99.90
70076;DHT22;63241;51.056;3.698;2023-04-21T05:31:31;8.50;99.90
70076;DHT22;63241;51.056;3.698;2023-04-21T05:33:59;8.60;99.90
70076;DHT22;63241;51.056;3.698;2023-04-21T05:36:26;8.60;99.90
70076;DHT22;63241;51.056;3.698;2023-04-21T05:38:56;8.60;99.90
70076;DHT22;63241;51.056;3.698;2023-04-21T05:41:23;8.70;99.90
70076;DHT22;63241;51.056;3.698;2023-04-21T05:43:51;8.70;99.90
70076;DHT22;63241;51.056;3.698;2023-04-21T05:46:18;8.80;99.90
70076;DHT22;63241;51.056;3.698;2023-04-21T05:48:46;8.90;99.90
70076;DHT22;63241;51.056;3.698;2023-04-21T05:51:14;8.90;99.90
70076;DHT22;63241;51.056;3.698;2023-04-21T05:53:43;8.90;99.90
70076;DHT22;63241;51.056;3.698;2023-04-21T05:56:12;9.00;99.90
70076;DHT22;63241;51.056;3.698;2023-04-21T05:58:40;9.10;99.90
70076;DHT22;63241;51.056;3.698;2023-04-21T06:01:07;9.20;99.90
70076;DHT22;63241;51.056;3.698;2023-04-21T06:03:35;9.10;99.90
70076;DHT22;63241;51.056;3.698;2023-04-21T06:06:04;9.10;99.90
70076;DHT22;63241;51.056;3.698;2023-04-21T06:08:32;9.20;99.90
70076;DHT22;63241;51.056;3.698;2023-04-21T06:11:00;9.40;99.90
70076;DHT22;63241;51.056;3.698;2023-04-21T06:13:28;9.70;99.90
70076;DHT22;63241;51.056;3.698;2023-04-21T06:15:55;9.90;99.90
70076;DHT22;63241;51.056;3.698;2023-04-21T06:18:25;9.80;99.90
70076;DHT22;63241;51.056;3.698;2023-04-21T06:20:53;10.00;99.90
70076;DHT22;63241;51.056;3.698;2023-04-21T06:23:21;10.20;99.90
70076;DHT22;63241;51.056;3.698;2023-04-21T06:26:05;10.40;99.90
70076;DHT22;63241;51.056;3.698;2023-04-21T06:28:34;10.50;99.90
70076;DHT22;63241;51.056;3.698;2023-04-21T06:31:03;10.40;99.90
70076;DHT22;63241;51.056;3.698;2023-04-21T06:33:31;10.50;99.90
70076;DHT22;63241;51.056;3.698;2023-04-21T06:35:58;10.50;99.90
70076;DHT22;63241;51.056;3.698;2023-04-21T06:38:26;10.50;99.90
70076;DHT22;63241;51.056;3.698;2023-04-21T06:40:54;10.40;99.90
70076;DHT22;63241;51.056;3.698;2023-04-21T06:43:22;10.40;99.90
70076;DHT22;63241;51.056;3.698;2023-04-21T06:45:49;10.70;99.90
70076;DHT22;63241;51.056;3.698;2023-04-21T06:48:17;10.80;99.90
70076;DHT22;63241;51.056;3.698;2023-04-21T06:50:44;11.40;99.90
70076;DHT22;63241;51.056;3.698;2023-04-21T08:16:49;25.90;39.80
70076;DHT22;63241;51.056;3.698;2023-04-21T08:19:17;26.00;38.70
70076;DHT22;63241;51.056;3.698;2023-04-21T08:21:44;25.80;39.60
70076;DHT22;63241;51.056;3.698;2023-04-21T08:24:12;25.70;39.50
70076;DHT22;63241;51.056;3.698;2023-04-21T08:26:40;24.80;38.00
70076;DHT22;63241;51.056;3.698;2023-04-21T08:29:07;24.50;41.00
70076;DHT22;63241;51.056;3.698;2023-04-21T08:31:36;25.40;38.40
70076;DHT22;63241;51.056;3.698;2023-04-21T08:34:03;25.20;37.80
70076;DHT22;63241;51.056;3.698;2023-04-21T08:36:32;25.20;38.00
70076;DHT22;63241;51.056;3.698;2023-04-21T08:39:00;25.80;38.10
70076;DHT22;63241;51.056;3.698;2023-04-21T08:41:28;25.30;36.30
70076;DHT22;63241;51.056;3.698;2023-04-21T08:43:56;25.50;38.10
70076;DHT22;63241;51.056;3.698;2023-04-21T08:46:23;26.00;37.10
70076;DHT22;63241;51.056;3.698;2023-04-21T08:48:52;24.90;36.40
70076;DHT22;63241;51.056;3.698;2023-04-21T08:51:23;24.00;39.20
70076;DHT22;63241;51.056;3.698;2023-04-21T08:53:54;24.70;39.20
70076;DHT22;63241;51.056;3.698;2023-04-21T08:56:24;24.00;38.30
70076;DHT22;63241;51.056;3.698;2023-04-21T08:58:54;24.30;40.30
70076;DHT22;63241;51.056;3.698;2023-04-21T09:01:22;25.40;38.70
70076;DHT22;63241;51.056;3.698;2023-04-21T09:03:50;25.50;36.90
70076;DHT22;63241;51.056;3.698;2023-04-21T09:06:17;24.90;37.00
70076;DHT22;63241;51.056;3.698;2023-04-21T09:08:53;23.50;37.70
70076;DHT22;63241;51.056;3.698;2023-04-21T09:11:24;22.50;40.50
70076;DHT22;63241;51.056;3.698;2023-04-21T09:13:55;22.70;42.20
70076;DHT22;63241;51.056;3.698;2023-04-21T09:16:22;23.20;40.90
70076;DHT22;63241;51.056;3.698;2023-04-21T09:18:50;24.30;39.40
70076;DHT22;63241;51.056;3.698;2023-04-21T09:21:18;25.90;37.20
70076;DHT22;63241;51.056;3.698;2023-04-21T09:23:49;28.50;34.70
70076;DHT22;63241;51.056;3.698;2023-04-21T09:26:19;30.30;31.60
70076;DHT22;63241;51.056;3.698;2023-04-21T09:28:50;31.90;28.40
70076;DHT22;63241;51.056;3.698;2023-04-21T09:31:20;30.90;27.90
70076;DHT22;63241;51.056;3.698;2023-04-21T09:33:55;31.40;28.10
70076;DHT22;63241;51.056;3.698;2023-04-21T09:55:07;37.70;22.00
70076;DHT22;63241;51.056;3.698;2023-04-21T09:57:37;36.50;22.00
70076;DHT22;63241;51.056;3.698;2023-04-21T10:00:13;35.90;23.10
70076;DHT22;63241;51.056;3.698;2023-04-21T10:02:47;36.80;23.20
70076;DHT22;63241;51.056;3.698;2023-04-21T10:05:16;36.40;22.90
70076;DHT22;63241;51.056;3.698;2023-04-21T10:07:44;35.90;23.10
70076;DHT22;63241;51.056;3.698;2023-04-21T10:12:49;36.30;22.10
70076;DHT22;63241;51.056;3.698;2023-04-21T10:15:40;36.30;22.50
70076;DHT22;63241;51.056;3.698;2023-04-21T10:31:59;36.60;21.70
70076;DHT22;63241;51.056;3.698;2023-04-21T10:52:41;35.00;23.50
70076;DHT22;63241;51.056;3.698;2023-04-21T10:55:08;34.80;23.30
70076;DHT22;63241;51.056;3.698;2023-04-21T10:57:40;35.50;22.50
70076;DHT22;63241;51.056;3.698;2023-04-21T11:00:08;35.30;22.00
70076;DHT22;63241;51.056;3.698;2023-04-21T11:02:37;34.80;21.50
70076;DHT22;63241;51.056;3.698;2023-04-21T11:05:05;35.10;22.00
70076;DHT22;63241;51.056;3.698;2023-04-21T11:07:32;34.40;22.30
70076;DHT22;63241;51.056;3.698;2023-04-21T11:10:06;34.50;22.40
70076;DHT22;63241;51.056;3.698;2023-04-21T11:12:37;34.70;22.90
70076;DHT22;63241;51.056;3.698;2023-04-21T11:15:03;33.80;23.40
70076;DHT22;63241;51.056;3.698;2023-04-21T11:17:33;33.70;23.80
70076;DHT22;63241;51.056;3.698;2023-04-21T11:20:01;33.60;23.70
70076;DHT22;63241;51.056;3.698;2023-04-21T11:28:05;34.00;24.40
70076;DHT22;63241;51.056;3.698;2023-04-21T11:30:33;34.20;23.40
70076;DHT22;63241;51.056;3.698;2023-04-21T11:33:01;34.20;23.60
70076;DHT22;63241;51.056;3.698;2023-04-21T11:35:30;34.10;22.40
70076;DHT22;63241;51.056;3.698;2023-04-21T11:38:03;34.00;22.20
70076;DHT22;63241;51.056;3.698;2023-04-21T11:40:27;33.90;21.90
70076;DHT22;63241;51.056;3.698;2023-04-21T11:42:55;32.50;23.00
70076;DHT22;63241;51.056;3.698;2023-04-21T11:45:22;31.80;24.00
70076;DHT22;63241;51.056;3.698;2023-04-21T11:47:50;31.60;24.30
70076;DHT22;63241;51.056;3.698;2023-04-21T11:50:29;31.80;24.00
70076;DHT22;63241;51.056;3.698;2023-04-21T11:52:57;32.30;24.20
70076;DHT22;63241;51.056;3.698;2023-04-21T11:55:27;32.70;22.10
70076;DHT22;63241;51.056;3.698;2023-04-21T11:57:56;32.70;22.90
70076;DHT22;63241;51.056;3.698;2023-04-21T12:00:28;33.10;22.90
70076;DHT22;63241;51.056;3.698;2023-04-21T12:02:55;32.50;22.60
70076;DHT22;63241;51.056;3.698;2023-04-21T12:05:23;31.70;23.20
70076;DHT22;63241;51.056;3.698;2023-04-21T12:07:54;31.00;24.60
70076;DHT22;63241;51.056;3.698;2023-04-21T12:22:24;30.80;23.60
70076;DHT22;63241;51.056;3.698;2023-04-21T12:24:52;30.20;24.50
70076;DHT22;63241;51.056;3.698;2023-04-21T12:27:20;30.00;24.30
70076;DHT22;63241;51.056;3.698;2023-04-21T12:29:48;30.20;24.40
70076;DHT22;63241;51.056;3.698;2023-04-21T12:32:16;29.90;24.00
70076;DHT22;63241;51.056;3.698;2023-04-21T12:34:43;29.90;24.60
70076;DHT22;63241;51.056;3.698;2023-04-21T12:37:11;29.10;24.80
70076;DHT22;63241;51.056;3.698;2023-04-21T12:39:39;29.10;25.30
70076;DHT22;63241;51.056;3.698;2023-04-21T12:42:07;29.50;24.30
70076;DHT22;63241;51.056;3.698;2023-04-21T12:44:36;29.00;23.90
70076;DHT22;63241;51.056;3.698;2023-04-21T12:47:04;28.30;23.90
70076;DHT22;63241;51.056;3.698;2023-04-21T12:49:33;28.00;24.70
70076;DHT22;63241;51.056;3.698;2023-04-21T12:52:01;28.40;25.10
70076;DHT22;63241;51.056;3.698;2023-04-21T12:54:31;29.00;24.70
70076;DHT22;63241;51.056;3.698;2023-04-21T12:56:59;29.10;24.50
70076;DHT22;63241;51.056;3.698;2023-04-21T12:59:27;28.40;24.30
70076;DHT22;63241;51.056;3.698;2023-04-21T13:01:55;28.40;25.00
70076;DHT22;63241;51.056;3.698;2023-04-21T13:04:23;28.90;24.90
70076;DHT22;63241;51.056;3.698;2023-04-21T13:06:51;29.00;25.30
70076;DHT22;63241;51.056;3.698;2023-04-21T13:09:19;29.20;25.20
70076;DHT22;63241;51.056;3.698;2023-04-21T13:11:47;28.90;24.90
70076;DHT22;63241;51.056;3.698;2023-04-21T13:14:14;29.00;25.50
70076;DHT22;63241;51.056;3.698;2023-04-21T13:16:43;28.90;25.60
70076;DHT22;63241;51.056;3.698;2023-04-21T13:19:11;28.10;25.70
70076;DHT22;63241;51.056;3.698;2023-04-21T13:21:39;27.20;26.50
70076;DHT22;63241;51.056;3.698;2023-04-21T13:24:07;26.30;28.10
70076;DHT22;63241;51.056;3.698;2023-04-21T13:26:35;26.00;28.40
70076;DHT22;63241;51.056;3.698;2023-04-21T13:29:03;26.50;28.50
70076;DHT22;63241;51.056;3.698;2023-04-21T13:31:31;26.40;27.70
70076;DHT22;63241;51.056;3.698;2023-04-21T13:34:00;25.90;27.60
70076;DHT22;63241;51.056;3.698;2023-04-21T13:36:29;25.90;27.60
70076;DHT22;63241;51.056;3.698;2023-04-21T13:38:58;25.70;27.60
70076;DHT22;63241;51.056;3.698;2023-04-21T13:41:27;25.00;28.90
70076;DHT22;63241;51.056;3.698;2023-04-21T13:43:55;24.60;29.70
70076;DHT22;63241;51.056;3.698;2023-04-21T13:46:23;24.50;29.60
70076;DHT22;63241;51.056;3.698;2023-04-21T13:48:50;25.00;29.00
70076;DHT22;63241;51.056;3.698;2023-04-21T13:51:19;24.90;28.40
70076;DHT22;63241;51.056;3.698;2023-04-21T13:53:47;25.20;28.70
70076;DHT22;63241;51.056;3.698;2023-04-21T13:56:15;25.50;28.20
70076;DHT22;63241;51.056;3.698;2023-04-21T13:58:43;25.90;27.80
70076;DHT22;63241;51.056;3.698;2023-04-21T14:01:12;26.10;27.70
70076;DHT22;63241;51.056;3.698;2023-04-21T14:03:40;25.80;27.70
70076;DHT22;63241;51.056;3.698;2023-04-21T14:06:08;25.40;27.90
70076;DHT22;63241;51.056;3.698;2023-04-21T14:08:36;24.80;28.30
70076;DHT22;63241;51.056;3.698;2023-04-21T14:11:04;24.50;28.50
70076;DHT22;63241;51.056;3.698;2023-04-21T14:16:21;23.70;30.10
70076;DHT22;63241;51.056;3.698;2023-04-21T14:18:50;23.70;29.90
70076;DHT22;63241;51.056;3.698;2023-04-21T14:21:18;23.60;30.30
70076;DHT22;63241;51.056;3.698;2023-04-21T14:23:45;23.30;31.10
70076;DHT22;63241;51.056;3.698;2023-04-21T14:26:13;22.80;31.80
70076;DHT22;63241;51.056;3.698;2023-04-21T14:28:41;22.40;31.80
70076;DHT22;63241;51.056;3.698;2023-04-21T14:31:09;22.20;32.50
70076;DHT22;63241;51.056;3.698;2023-04-21T14:33:36;22.00;32.60
70076;DHT22;63241;51.056;3.698;2023-04-21T14:36:04;21.90;33.00
70076;DHT22;63241;51.056;3.698;2023-04-21T14:38:33;21.70;32.50
70076;DHT22;63241;51.056;3.698;2023-04-21T14:41:01;21.60;33.20
70076;DHT22;63241;51.056;3.698;2023-04-21T14:43:29;21.60;33.20
70076;DHT22;63241;51.056;3.698;2023-04-21T14:45:58;21.50;35.60
70076;DHT22;63241;51.056;3.698;2023-04-21T14:48:25;21.60;36.60
70076;DHT22;63241;51.056;3.698;2023-04-21T14:50:54;21.70;36.50
70076;DHT22;63241;51.056;3.698;2023-04-21T14:53:24;21.60;36.90
70076;DHT22;63241;51.056;3.698;2023-04-21T14:55:51;21.60;36.40
70076;DHT22;63241;51.056;3.698;2023-04-21T14:58:19;21.30;36.70
70076;DHT22;63241;51.056;3.698;2023-04-21T15:00:47;20.80;37.40
70076;DHT22;63241;51.056;3.698;2023-04-21T15:03:15;20.40;37.50
70076;DHT22;63241;51.056;3.698;2023-04-21T15:05:44;20.10;38.10
70076;DHT22;63241;51.056;3.698;2023-04-21T15:08:12;20.10;38.30
70076;DHT22;63241;51.056;3.698;2023-04-21T15:10:42;19.90;38.10
70076;DHT22;63241;51.056;3.698;2023-04-21T15:13:11;19.70;37.40
70076;DHT22;63241;51.056;3.698;2023-04-21T15:15:39;19.70;37.50
70076;DHT22;63241;51.056;3.698;2023-04-21T15:18:07;19.60;37.70
70076;DHT22;63241;51.056;3.698;2023-04-21T15:20:35;19.50;38.40
70076;DHT22;63241;51.056;3.698;2023-04-21T15:23:03;19.40;38.60
70076;DHT22;63241;51.056;3.698;2023-04-21T15:25:31;19.40;38.60
70076;DHT22;63241;51.056;3.698;2023-04-21T15:27:59;19.30;39.10
70076;DHT22;63241;51.056;3.698;2023-04-21T15:30:31;19.30;38.90
70076;DHT22;63241;51.056;3.698;2023-04-21T15:33:01;19.20;39.00
70076;DHT22;63241;51.056;3.698;2023-04-21T15:35:28;19.20;38.00
70076;DHT22;63241;51.056;3.698;2023-04-21T15:37:56;19.10;39.10
70076;DHT22;63241;51.056;3.698;2023-04-21T15:40:24;19.10;39.40
70076;DHT22;63241;51.056;3.698;2023-04-21T15:42:52;19.10;40.00
70076;DHT22;63241;51.056;3.698;2023-04-21T15:45:20;19.10;40.10
70076;DHT22;63241;51.056;3.698;2023-04-21T15:47:48;19.20;39.50
70076;DHT22;63241;51.056;3.698;2023-04-21T15:50:16;19.20;37.10
70076;DHT22;63241;51.056;3.698;2023-04-21T15:52:44;19.20;36.90
70076;DHT22;63241;51.056;3.698;2023-04-21T15:55:12;19.00;36.90
70076;DHT22;63241;51.056;3.698;2023-04-21T15:57:39;18.90;38.20
70076;DHT22;63241;51.056;3.698;2023-04-21T16:00:08;18.70;39.30
70076;DHT22;63241;51.056;3.698;2023-04-21T16:02:38;18.70;39.30
70076;DHT22;63241;51.056;3.698;2023-04-21T16:05:07;18.70;39.10
70076;DHT22;63241;51.056;3.698;2023-04-21T16:07:35;18.80;38.10
70076;DHT22;63241;51.056;3.698;2023-04-21T16:10:03;18.70;38.20
70076;DHT22;63241;51.056;3.698;2023-04-21T16:12:31;18.80;38.50
70076;DHT22;63241;51.056;3.698;2023-04-21T16:14:59;18.80;39.00
70076;DHT22;63241;51.056;3.698;2023-04-21T16:17:27;18.90;39.10
70076;DHT22;63241;51.056;3.698;2023-04-21T16:19:54;19.10;39.00
70076;DHT22;63241;51.056;3.698;2023-04-21T16:22:22;19.20;38.20
70076;DHT22;63241;51.056;3.698;2023-04-21T16:24:50;19.30;38.00
70076;DHT22;63241;51.056;3.698;2023-04-21T16:27:18;19.50;37.40
70076;DHT22;63241;51.056;3.698;2023-04-21T16:29:46;19.60;37.60
70076;DHT22;63241;51.056;3.698;2023-04-21T16:32:15;19.40;38.00
70076;DHT22;63241;51.056;3.698;2023-04-21T16:34:43;19.20;38.20
70076;DHT22;63241;51.056;3.698;2023-04-21T16:37:11;19.20;38.70
70076;DHT22;63241;51.056;3.698;2023-04-21T16:39:39;19.10;39.00
70076;DHT22;63241;51.056;3.698;2023-04-21T16:42:06;19.00;39.80
70076;DHT22;63241;51.056;3.698;2023-04-21T16:44:34;18.60;43.80
70076;DHT22;63241;51.056;3.698;2023-04-21T16:47:02;18.10;46.20
70076;DHT22;63241;51.056;3.698;2023-04-21T16:49:30;17.60;48.40
70076;DHT22;63241;51.056;3.698;2023-04-21T16:51:57;17.10;50.50
70076;DHT22;63241;51.056;3.698;2023-04-21T16:54:25;16.40;52.00
70076;DHT22;63241;51.056;3.698;2023-04-21T16:56:52;15.80;54.20
70076;DHT22;63241;51.056;3.698;2023-04-21T16:59:20;15.20;55.90
70076;DHT22;63241;51.056;3.698;2023-04-21T17:01:49;14.80;59.50
70076;DHT22;63241;51.056;3.698;2023-04-21T17:04:17;14.40;68.60
70076;DHT22;63241;51.056;3.698;2023-04-21T17:06:45;14.10;79.40
70076;DHT22;63241;51.056;3.698;2023-04-21T17:09:13;13.80;97.40
70076;DHT22;63241;51.056;3.698;2023-04-21T17:11:41;13.40;99.90
70076;DHT22;63241;51.056;3.698;2023-04-21T17:14:11;13.10;99.90
70076;DHT22;63241;51.056;3.698;2023-04-21T17:16:38;12.80;99.90
70076;DHT22;63241;51.056;3.698;2023-04-21T17:19:06;12.50;99.90
70076;DHT22;63241;51.056;3.698;2023-04-21T17:21:34;12.20;99.90
70076;DHT22;63241;51.056;3.698;2023-04-21T17:24:01;11.90;99.90
70076;DHT22;63241;51.056;3.698;2023-04-21T17:26:29;11.70;99.90
70076;DHT22;63241;51.056;3.698;2023-04-21T17:28:56;11.60;99.90
70076;DHT22;63241;51.056;3.698;2023-04-21T17:31:25;11.50;99.90
70076;DHT22;63241;51.056;3.698;2023-04-21T17:33:54;11.40;99.90
70076;DHT22;63241;51.056;3.698;2023-04-21T17:36:27;11.40;99.90
70076;DHT22;63241;51.056;3.698;2023-04-21T17:38:58;11.30;99.90
70076;DHT22;63241;51.056;3.698;2023-04-21T17:41:26;11.20;99.90
70076;DHT22;63241;51.056;3.698;2023-04-21T17:43:53;11.20;99.90
70076;DHT22;63241;51.056;3.698;2023-04-21T17:46:22;11.20;99.90
70076;DHT22;63241;51.056;3.698;2023-04-21T17:48:49;11.20;99.90
70076;DHT22;63241;51.056;3.698;2023-04-21T17:51:17;11.20;99.90
70076;DHT22;63241;51.056;3.698;2023-04-21T17:53:45;11.20;99.90
70076;DHT22;63241;51.056;3.698;2023-04-21T17:56:12;11.20;99.90
70076;DHT22;63241;51.056;3.698;2023-04-21T17:58:40;11.20;99.90
70076;DHT22;63241;51.056;3.698;2023-04-21T18:01:08;11.30;99.90
70076;DHT22;63241;51.056;3.698;2023-04-21T18:03:36;11.30;99.90
70076;DHT22;63241;51.056;3.698;2023-04-21T18:06:06;11.20;99.90
70076;DHT22;63241;51.056;3.698;2023-04-21T18:08:36;11.10;99.90
70076;DHT22;63241;51.056;3.698;2023-04-21T18:11:04;11.20;99.90
70076;DHT22;63241;51.056;3.698;2023-04-21T18:13:31;11.10;99.90
70076;DHT22;63241;51.056;3.698;2023-04-21T18:15:59;11.00;99.90
70076;DHT22;63241;51.056;3.698;2023-04-21T18:18:27;11.00;99.90
70076;DHT22;63241;51.056;3.698;2023-04-21T18:20:55;11.00;99.90